createdAt,value
2023-06-05T00:00:10.252Z,54.40
2023-06-05T00:03:00.324Z,54.51
2023-06-05T00:05:46.838Z,54.32
2023-06-05T00:08:33.304Z,54.51
2023-06-05T00:11:19.505Z,54.36
2023-06-05T00:14:06.763Z,54.44
2023-06-05T00:16:53.167Z,54.53
2023-06-05T00:19:39.245Z,54.76
2023-06-05T00:22:28.626Z,54.50
2023-06-05T00:25:14.583Z,54.45
2023-06-05T00:28:01.058Z,54.53
2023-06-05T00:30:46.963Z,54.76
2023-06-05T00:33:33.428Z,54.59
2023-06-05T00:36:23.766Z,54.63
2023-06-05T00:39:10.099Z,54.70
2023-06-05T00:41:56.612Z,54.72
2023-06-05T00:44:42.761Z,54.75
2023-06-05T00:47:29.134Z,54.69
2023-06-05T00:50:16.927Z,54.83
2023-06-05T00:53:03.248Z,54.54
2023-06-05T00:55:49.486Z,54.45
2023-06-05T00:58:35.942Z,54.64
2023-06-05T01:01:22.638Z,54.80
2023-06-05T01:04:08.763Z,54.69
2023-06-05T01:06:54.583Z,54.67
2023-06-05T01:09:41.132Z,54.60
2023-06-05T01:12:49.056Z,54.74
2023-06-05T01:15:37.629Z,54.71
2023-06-05T01:18:24.446Z,54.73
2023-06-05T01:21:17.279Z,54.91
2023-06-05T01:24:06.821Z,54.78
2023-06-05T01:27:17.306Z,54.79
2023-06-05T01:30:11.649Z,54.83
2023-06-05T01:33:13.937Z,54.88
2023-06-05T01:36:06.152Z,55.04
2023-06-05T01:38:54.943Z,54.89
2023-06-05T01:41:41.806Z,54.99
2023-06-05T01:44:28.310Z,55.00
2023-06-05T01:47:14.314Z,55.09
2023-06-05T01:50:00.330Z,55.30
2023-06-05T01:52:47.912Z,55.24
2023-06-05T01:55:34.071Z,55.07
2023-06-05T01:58:21.575Z,55.17
2023-06-05T02:01:09.263Z,55.30
2023-06-05T02:03:55.314Z,55.43
2023-06-05T02:06:44.736Z,55.22
2023-06-05T02:09:35.482Z,55.22
2023-06-05T02:12:27.594Z,55.20
2023-06-05T02:15:14.417Z,55.29
2023-06-05T02:18:01.778Z,55.13
2023-06-05T02:20:55.244Z,55.34
2023-06-05T02:23:41.342Z,55.35
2023-06-05T02:26:28.406Z,55.53
2023-06-05T02:29:15.908Z,55.63
2023-06-05T02:32:01.865Z,55.48
2023-06-05T02:34:48.489Z,55.63
2023-06-05T02:37:38.364Z,55.75
2023-06-05T02:40:25.091Z,55.53
2023-06-05T02:43:12.482Z,55.56
2023-06-05T02:45:58.672Z,55.69
2023-06-05T02:48:45.158Z,55.70
2023-06-05T02:51:31.244Z,55.72
2023-06-05T02:54:17.578Z,55.77
2023-06-05T02:57:07.970Z,55.70
2023-06-05T02:59:57.452Z,55.66
2023-06-05T03:02:49.540Z,55.61
2023-06-05T03:05:39.197Z,55.81
2023-06-05T03:08:30.251Z,55.90
2023-06-05T03:11:16.352Z,55.90
2023-06-05T03:14:07.019Z,55.83
2023-06-05T03:16:55.473Z,55.88
2023-06-05T03:19:42.990Z,55.97
2023-06-05T03:22:29.235Z,55.92
2023-06-05T03:25:16.716Z,55.88
2023-06-05T03:28:04.895Z,55.90
2023-06-05T03:30:51.796Z,56.01
2023-06-05T03:33:40.879Z,56.09
2023-06-05T03:36:29.283Z,55.89
2023-06-05T03:39:16.573Z,56.03
2023-06-05T03:42:03.541Z,56.08
2023-06-05T03:44:51.555Z,56.04
2023-06-05T03:47:37.690Z,56.05
2023-06-05T03:50:25.800Z,56.09
2023-06-05T03:53:14.806Z,56.20
2023-06-05T03:56:01.791Z,56.09
2023-06-05T03:58:54.726Z,56.30
2023-06-05T04:01:41.123Z,56.23
2023-06-05T04:04:27.689Z,56.48
2023-06-05T04:07:13.806Z,56.33
2023-06-05T04:09:59.906Z,56.24
2023-06-05T04:12:46.040Z,56.19
2023-06-05T04:15:32.421Z,56.26
2023-06-05T04:18:18.447Z,56.24
2023-06-05T04:21:06.369Z,56.25
2023-06-05T04:23:52.673Z,56.29
2023-06-05T04:26:42.716Z,56.57
2023-06-05T04:29:30.093Z,56.53
2023-06-05T04:32:18.017Z,56.54
2023-06-05T04:35:09.386Z,56.44
2023-06-05T04:37:55.679Z,56.53
2023-06-05T04:40:42.230Z,56.46
2023-06-05T04:43:28.690Z,56.57
2023-06-05T04:46:14.978Z,56.46
2023-06-05T04:49:02.289Z,56.47
2023-06-05T04:51:58.145Z,56.53
2023-06-05T04:54:44.724Z,56.68
2023-06-05T04:57:31.051Z,56.62
2023-06-05T05:00:19.470Z,56.67
2023-06-05T05:03:06.976Z,56.73
2023-06-05T05:05:53.378Z,56.50
2023-06-05T05:08:39.514Z,56.44
2023-06-05T05:11:25.804Z,56.33
2023-06-05T05:14:12.054Z,56.35
2023-06-05T05:16:58.266Z,56.25
2023-06-05T05:19:44.426Z,56.40
2023-06-05T05:22:30.370Z,56.45
2023-06-05T05:25:17.135Z,56.53
2023-06-05T05:28:03.421Z,56.38
2023-06-05T05:30:49.827Z,56.41
2023-06-05T05:33:36.240Z,56.36
2023-06-05T05:36:23.209Z,56.30
2023-06-05T05:39:09.509Z,56.48
2023-06-05T05:41:55.962Z,56.49
2023-06-05T05:44:43.403Z,56.49
2023-06-05T05:47:29.708Z,56.58
2023-06-05T05:50:15.606Z,56.64
2023-06-05T05:53:01.449Z,56.42
2023-06-05T05:55:47.428Z,56.54
2023-06-05T05:58:33.349Z,56.47
2023-06-05T06:01:19.564Z,56.64
2023-06-05T06:04:05.732Z,56.51
2023-06-05T06:06:53.917Z,56.58
2023-06-05T06:09:40.270Z,56.45
2023-06-05T06:12:26.321Z,56.53
2023-06-05T06:15:12.978Z,56.53
2023-06-05T06:17:59.383Z,56.38
2023-06-05T06:20:45.709Z,56.49
2023-06-05T06:23:31.575Z,56.32
2023-06-05T06:26:17.703Z,56.14
2023-06-05T06:29:03.895Z,56.19
2023-06-05T06:31:50.555Z,56.29
2023-06-05T06:34:37.090Z,56.30
2023-06-05T06:37:23.945Z,56.33
2023-06-05T06:40:10.533Z,56.33
2023-06-05T06:42:57.061Z,56.14
2023-06-05T06:46:01.520Z,56.39
2023-06-05T06:48:47.941Z,56.17
2023-06-05T06:51:34.437Z,56.23
2023-06-05T06:54:24.060Z,56.11
2023-06-05T06:57:10.100Z,56.03
2023-06-05T06:59:56.468Z,55.92
2023-06-05T07:02:43.140Z,55.89
2023-06-05T07:05:29.309Z,55.73
2023-06-05T07:08:15.830Z,55.63
2023-06-05T07:11:02.194Z,55.67
2023-06-05T07:13:49.019Z,55.34
2023-06-05T07:16:35.214Z,55.58
2023-06-05T07:19:21.807Z,55.38
2023-06-05T07:22:08.271Z,55.36
2023-06-05T07:24:56.846Z,55.18
2023-06-05T07:27:45.552Z,55.31
2023-06-05T07:30:34.911Z,55.21
2023-06-05T07:33:29.751Z,54.99
2023-06-05T07:36:17.784Z,55.06
2023-06-05T07:39:04.659Z,54.95
2023-06-05T07:41:51.107Z,54.96
2023-06-05T07:44:37.084Z,54.72
2023-06-05T07:47:23.657Z,55.03
2023-06-05T07:50:10.172Z,54.86
2023-06-05T07:52:56.027Z,55.10
2023-06-05T07:55:42.324Z,54.71
2023-06-05T07:58:29.788Z,54.93
2023-06-05T08:01:17.663Z,54.83
2023-06-05T08:04:05.748Z,54.79
2023-06-05T08:06:52.985Z,54.69
2023-06-05T08:09:40.816Z,54.62
2023-06-05T08:12:28.046Z,54.64
2023-06-05T08:15:14.421Z,54.80
2023-06-05T08:18:00.435Z,54.60
2023-06-05T08:20:46.598Z,54.54
2023-06-05T08:23:32.798Z,54.44
2023-06-05T08:26:23.094Z,54.64
2023-06-05T08:29:09.123Z,54.57
2023-06-05T08:31:55.758Z,54.37
2023-06-05T08:34:42.018Z,54.37
2023-06-05T08:37:29.570Z,54.34
2023-06-05T08:40:17.014Z,54.20
2023-06-05T08:43:03.890Z,54.05
2023-06-05T08:45:53.566Z,53.96
2023-06-05T08:48:44.600Z,53.92
2023-06-05T08:51:30.921Z,53.96
2023-06-05T08:54:17.683Z,54.14
2023-06-05T08:57:05.742Z,53.74
2023-06-05T08:59:51.973Z,53.88
2023-06-05T09:02:39.669Z,53.63
2023-06-05T09:05:26.267Z,53.48
2023-06-05T09:08:12.099Z,53.40
2023-06-05T09:11:29.806Z,53.24
2023-06-05T09:14:27.223Z,53.27
2023-06-05T09:17:14.869Z,53.17
2023-06-05T09:20:00.848Z,53.07
2023-06-05T09:22:46.916Z,52.89
2023-06-05T09:26:01.216Z,52.65
2023-06-05T09:28:56.522Z,52.62
2023-06-05T09:31:45.887Z,52.78
2023-06-05T09:34:34.265Z,52.63
2023-06-05T09:37:22.168Z,52.56
2023-06-05T09:40:10.175Z,52.62
2023-06-05T09:42:56.431Z,52.26
2023-06-05T09:45:46.165Z,52.15
2023-06-05T09:48:34.039Z,51.95
2023-06-05T09:51:20.955Z,51.92
2023-06-05T09:54:06.952Z,51.93
2023-06-05T09:56:58.347Z,51.72
2023-06-05T09:59:51.353Z,51.44
2023-06-05T10:02:37.515Z,51.74
2023-06-05T10:05:24.370Z,51.89
2023-06-05T10:08:13.244Z,51.57
2023-06-05T10:10:59.420Z,51.36
2023-06-05T10:13:46.504Z,51.42
2023-06-05T10:16:32.952Z,51.32
2023-06-05T10:19:23.599Z,51.21
2023-06-05T10:22:12.829Z,51.29
2023-06-05T10:25:02.593Z,51.05
2023-06-05T10:28:11.480Z,51.09
2023-06-05T10:31:27.741Z,50.78
2023-06-05T10:34:43.663Z,50.50
2023-06-05T10:38:05.390Z,50.16
2023-06-05T10:41:00.197Z,50.38
2023-06-05T10:43:56.902Z,50.23
2023-06-05T10:46:46.211Z,50.04
2023-06-05T10:49:33.665Z,50.07
2023-06-05T10:52:40.809Z,49.36
2023-06-05T10:55:28.796Z,49.75
2023-06-05T10:58:16.693Z,49.57
2023-06-05T11:01:18.440Z,49.43
2023-06-05T11:04:04.664Z,49.46
2023-06-05T11:07:22.529Z,48.97
2023-06-05T11:10:11.632Z,48.72
2023-06-05T11:12:58.057Z,48.60
2023-06-05T11:15:44.395Z,48.50
2023-06-05T11:18:35.130Z,48.61
2023-06-05T11:21:20.995Z,48.20
2023-06-05T11:24:17.951Z,48.18
2023-06-05T11:27:06.511Z,47.92
2023-06-05T11:29:54.051Z,47.92
2023-06-05T11:32:40.663Z,47.77
2023-06-05T11:35:30.234Z,47.47
2023-06-05T11:38:16.682Z,47.55
2023-06-05T11:41:08.461Z,47.33
2023-06-05T11:43:54.475Z,47.28
2023-06-05T11:46:42.119Z,47.31
2023-06-05T11:49:29.762Z,46.91
2023-06-05T11:52:20.350Z,46.55
2023-06-05T11:55:23.627Z,46.28
2023-06-05T11:58:11.122Z,46.07
2023-06-05T12:01:19.553Z,45.57
2023-06-05T12:04:09.208Z,45.71
2023-06-05T12:06:56.841Z,45.43
2023-06-05T12:09:59.671Z,45.01
2023-06-05T12:12:52.998Z,44.25
2023-06-05T12:15:38.944Z,43.78
2023-06-05T12:18:37.409Z,43.51
2023-06-05T12:21:25.504Z,43.43
2023-06-05T12:24:12.928Z,43.35
2023-06-05T12:27:00.784Z,43.06
2023-06-05T12:29:55.965Z,43.15
2023-06-05T12:32:42.228Z,42.60
2023-06-05T12:35:28.818Z,42.23
2023-06-05T12:38:15.441Z,41.77
2023-06-05T12:41:05.259Z,41.37
2023-06-05T12:44:05.795Z,41.33
2023-06-05T12:46:54.970Z,40.53
2023-06-05T12:49:42.570Z,40.36
2023-06-05T12:52:28.665Z,40.25
2023-06-05T12:55:15.089Z,40.29
2023-06-05T12:58:01.563Z,40.18
2023-06-05T13:00:48.055Z,39.82
2023-06-05T13:03:38.410Z,39.27
2023-06-05T13:06:26.447Z,39.12
2023-06-05T13:09:12.356Z,38.64
2023-06-05T13:12:03.611Z,38.86
2023-06-05T13:14:51.655Z,38.78
2023-06-05T13:17:39.148Z,38.23
2023-06-05T13:20:26.701Z,38.18
2023-06-05T13:23:13.045Z,37.75
2023-06-05T13:26:00.154Z,37.17
2023-06-05T13:28:46.283Z,36.88
2023-06-05T13:31:33.619Z,36.93
2023-06-05T13:34:20.189Z,35.82
2023-06-05T13:37:13.694Z,36.14
2023-06-05T13:40:00.405Z,35.60
2023-06-05T13:42:46.406Z,35.34
2023-06-05T13:45:32.606Z,35.05
2023-06-05T13:48:18.821Z,34.65
2023-06-05T13:51:05.723Z,34.61
2023-06-05T13:53:51.597Z,34.99
2023-06-05T13:56:37.318Z,34.87
2023-06-05T13:59:23.212Z,34.38
2023-06-05T14:02:09.079Z,34.35
2023-06-05T14:04:55.222Z,34.40
2023-06-05T14:10:37.046Z,34.15
2023-06-05T14:13:23.054Z,34.46
2023-06-05T14:16:12.156Z,34.22
2023-06-05T14:18:58.781Z,34.28
2023-06-05T14:21:45.241Z,34.39
2023-06-05T14:24:31.279Z,34.62
2023-06-05T14:27:18.078Z,34.32
2023-06-05T14:30:04.145Z,33.89
2023-06-05T14:32:50.463Z,33.82
2023-06-05T14:35:37.708Z,34.00
2023-06-05T14:38:23.850Z,33.94
2023-06-05T14:41:09.671Z,34.12
2023-06-05T14:43:55.597Z,34.03
2023-06-05T14:46:42.516Z,34.47
2023-06-05T14:49:28.660Z,34.49
2023-06-05T14:52:14.954Z,34.69
2023-06-05T14:55:05.533Z,34.44
2023-06-05T14:57:52.339Z,34.82
2023-06-05T15:00:39.487Z,34.65
2023-06-05T15:03:25.850Z,34.48
2023-06-05T15:06:21.344Z,34.53
2023-06-05T15:09:11.469Z,34.83
2023-06-05T15:11:57.227Z,34.46
2023-06-05T15:14:43.050Z,34.83
2023-06-05T15:17:29.473Z,35.14
2023-06-05T15:20:15.802Z,35.43
2023-06-05T15:25:51.268Z,35.79
2023-06-05T15:28:37.126Z,36.32
2023-06-05T15:31:22.970Z,36.34
2023-06-05T15:34:09.208Z,36.52
2023-06-05T15:36:54.996Z,36.59
2023-06-05T15:39:43.084Z,36.32
2023-06-05T15:42:33.984Z,36.63
2023-06-05T15:45:20.162Z,37.10
2023-06-05T15:48:06.739Z,37.21
2023-06-05T15:50:52.495Z,37.38
2023-06-05T15:53:47.106Z,37.75
2023-06-05T15:56:41.917Z,37.75
2023-06-05T15:59:27.920Z,37.75
2023-06-05T16:02:14.079Z,38.12
2023-06-05T16:05:00.382Z,38.30
2023-06-05T16:07:46.574Z,38.29
2023-06-05T16:10:32.574Z,38.54
2023-06-05T16:13:18.858Z,38.73
2023-06-05T16:16:05.227Z,38.77
2023-06-05T16:18:51.024Z,39.13
2023-06-05T16:21:38.854Z,39.07
2023-06-05T16:24:24.895Z,39.04
2023-06-05T16:27:11.205Z,39.21
2023-06-05T16:29:57.285Z,39.04
2023-06-05T16:32:43.593Z,39.27
2023-06-05T16:35:29.731Z,39.24
2023-06-05T16:38:16.031Z,39.53
2023-06-05T16:41:02.051Z,39.59
2023-06-05T16:43:48.119Z,39.52
2023-06-05T16:46:34.573Z,39.84
2023-06-05T16:49:20.680Z,39.74
2023-06-05T16:52:06.599Z,39.64
2023-06-05T16:54:52.976Z,40.08
2023-06-05T16:57:38.671Z,40.08
2023-06-05T17:00:25.645Z,39.74
2023-06-05T17:03:13.138Z,40.13
2023-06-05T17:05:59.462Z,40.29
2023-06-05T17:08:46.934Z,40.30
2023-06-05T17:11:33.189Z,40.39
2023-06-05T17:14:20.711Z,40.20
2023-06-05T17:17:06.872Z,40.40
2023-06-05T17:19:53.094Z,40.33
2023-06-05T17:22:39.129Z,40.45
2023-06-05T17:25:25.518Z,40.58
2023-06-05T17:28:11.759Z,40.75
2023-06-05T17:30:57.854Z,40.74
2023-06-05T17:33:43.978Z,40.63
2023-06-05T17:36:30.110Z,40.86
2023-06-05T17:39:15.982Z,40.74
2023-06-05T17:42:04.218Z,40.81
2023-06-05T17:44:50.008Z,40.91
2023-06-05T17:47:36.131Z,41.00
2023-06-05T17:50:22.377Z,40.71
2023-06-05T17:53:08.468Z,41.13
2023-06-05T17:55:54.515Z,41.19
2023-06-05T17:58:41.130Z,41.15
2023-06-05T18:01:28.048Z,41.16
2023-06-05T18:04:15.811Z,41.22
2023-06-05T18:07:01.692Z,41.30
2023-06-05T18:09:47.414Z,41.18
2023-06-05T18:12:33.215Z,41.32
2023-06-05T18:15:18.978Z,41.33
2023-06-05T18:18:05.974Z,41.34
2023-06-05T18:20:52.142Z,41.30
2023-06-05T18:23:42.452Z,41.32
2023-06-05T18:26:28.439Z,41.14
2023-06-05T18:29:14.408Z,41.40
2023-06-05T18:32:00.661Z,41.52
2023-06-05T18:34:47.213Z,41.46
2023-06-05T18:37:33.272Z,41.51
2023-06-05T18:40:19.356Z,41.47
2023-06-05T18:43:05.415Z,41.55
2023-06-05T18:45:51.491Z,41.72
2023-06-05T18:48:37.360Z,41.65
2023-06-05T18:51:25.167Z,41.80
2023-06-05T18:54:11.588Z,41.75
2023-06-05T18:56:57.684Z,41.84
2023-06-05T18:59:43.739Z,41.94
2023-06-05T19:02:29.801Z,42.04
2023-06-05T19:05:15.870Z,41.99
2023-06-05T19:08:02.119Z,42.12
2023-06-05T19:10:48.521Z,42.26
2023-06-05T19:13:34.465Z,42.18
2023-06-05T19:16:21.270Z,42.53
2023-06-05T19:19:08.179Z,42.57
2023-06-05T19:21:54.289Z,42.64
2023-06-05T19:24:40.065Z,42.98
2023-06-05T19:27:26.379Z,43.13
2023-06-05T19:30:12.944Z,43.33
2023-06-05T19:32:59.030Z,43.83
2023-06-05T19:35:45.164Z,43.71
2023-06-05T19:38:31.255Z,43.98
2023-06-05T19:41:18.259Z,43.97
2023-06-05T19:44:04.774Z,44.23
2023-06-05T19:46:50.647Z,44.34
2023-06-05T19:49:36.799Z,44.45
2023-06-05T19:52:22.760Z,44.42
2023-06-05T19:55:08.837Z,44.44
2023-06-05T19:57:55.094Z,44.76
2023-06-05T20:00:41.332Z,44.87
2023-06-05T20:03:28.317Z,44.82
2023-06-05T20:06:16.685Z,44.96
2023-06-05T20:09:02.883Z,45.05
2023-06-05T20:11:49.133Z,45.07
2023-06-05T20:14:35.501Z,45.24
2023-06-05T20:17:21.507Z,45.22
2023-06-05T20:20:07.787Z,45.15
2023-06-05T20:22:55.748Z,45.46
2023-06-05T20:25:42.192Z,45.54
2023-06-05T20:28:28.424Z,45.52
2023-06-05T20:31:14.344Z,45.60
2023-06-05T20:34:00.628Z,45.78
2023-06-05T20:36:48.202Z,45.72
2023-06-05T20:39:34.346Z,45.80
2023-06-05T20:42:20.395Z,45.78
2023-06-05T20:45:08.808Z,46.01
2023-06-05T20:47:57.026Z,46.13
2023-06-05T20:50:48.701Z,46.05
2023-06-05T20:53:38.375Z,46.16
2023-06-05T20:56:28.300Z,46.23
2023-06-05T20:59:14.709Z,46.28
2023-06-05T21:02:01.162Z,46.22
2023-06-05T21:04:50.307Z,46.35
2023-06-05T21:07:36.381Z,46.36
2023-06-05T21:10:23.626Z,46.41
2023-06-05T21:13:09.718Z,46.65
2023-06-05T21:15:55.616Z,46.70
2023-06-05T21:18:41.671Z,46.44
2023-06-05T21:21:27.691Z,46.58
2023-06-05T21:24:17.557Z,46.42
2023-06-05T21:27:03.734Z,46.75
2023-06-05T21:29:54.343Z,46.58
2023-06-05T21:32:40.636Z,46.87
2023-06-05T21:35:28.398Z,46.81
2023-06-05T21:38:14.741Z,46.75
2023-06-05T21:41:00.824Z,47.10
2023-06-05T21:43:46.763Z,46.97
2023-06-05T21:46:34.002Z,47.14
2023-06-05T21:49:22.222Z,47.26
2023-06-05T21:52:08.890Z,47.06
2023-06-05T21:54:55.936Z,47.29
2023-06-05T21:57:41.951Z,47.26
2023-06-05T22:00:32.936Z,47.29
2023-06-05T22:03:18.752Z,47.49
2023-06-05T22:06:05.253Z,47.49
2023-06-05T22:08:53.190Z,47.47
2023-06-05T22:11:39.791Z,47.34
2023-06-05T22:14:26.398Z,47.72
2023-06-05T22:17:14.277Z,47.63
2023-06-05T22:20:15.410Z,47.65
2023-06-05T22:23:01.674Z,47.83
2023-06-05T22:25:52.680Z,48.09
2023-06-05T22:28:39.179Z,47.82
2023-06-05T22:31:24.955Z,48.01
2023-06-05T22:34:10.756Z,47.95
2023-06-05T22:37:05.442Z,48.07
2023-06-05T22:39:52.095Z,47.99
2023-06-05T22:42:38.358Z,48.17
2023-06-05T22:45:24.455Z,48.06
2023-06-05T22:48:10.377Z,48.04
2023-06-05T22:50:56.522Z,48.00
2023-06-05T22:53:42.253Z,48.20
2023-06-05T22:56:28.235Z,48.53
2023-06-05T22:59:14.355Z,48.73
2023-06-05T23:02:00.208Z,48.51
2023-06-05T23:04:46.126Z,48.43
2023-06-05T23:07:32.158Z,48.66
2023-06-05T23:10:17.967Z,48.46
2023-06-05T23:13:04.023Z,48.70
2023-06-05T23:15:53.966Z,48.59
2023-06-05T23:18:40.019Z,48.81
2023-06-05T23:21:26.079Z,48.62
2023-06-05T23:24:12.447Z,48.75
2023-06-05T23:26:58.857Z,48.92
2023-06-05T23:29:45.334Z,48.82
2023-06-05T23:32:31.948Z,48.69
2023-06-05T23:35:17.859Z,48.72
2023-06-05T23:38:03.815Z,49.00
2023-06-05T23:40:51.545Z,49.00
2023-06-05T23:43:37.583Z,49.02
2023-06-05T23:46:24.566Z,49.18
2023-06-05T23:49:11.010Z,49.00
2023-06-05T23:51:57.128Z,49.09
2023-06-05T23:54:44.740Z,49.24
2023-06-05T23:57:31.431Z,49.34
